Time;durP1;ratioP1;P1;durP2;ratioP2;P2;SDS_P1;SDS_P2;PMS_P1;PMS_P2;Temp;Humidity;BMP_temperature;BMP_pressure;BME280_temperature;BME280_humidity;BME280_pressure;Samples;Min_cycle;Max_cycle;Signal;HPM_P1;HPM_P2
2021/03/23 00:00:44;;;;;;;11.95;3.78;;;4.80;99.90;;;;;;5014538;28;20066;-66
2021/03/23 00:03:14;;;;;;;8.88;4.22;;;4.90;99.90;;;;;;5009053;28;20030;-66
2021/03/23 00:05:39;;;;;;;7.63;3.33;;;4.90;99.90;;;;;;5017260;28;20541;-66
2021/03/23 00:08:06;;;;;;;9.93;3.53;;;5.10;99.90;;;;;;5009530;28;20069;-65
2021/03/23 00:10:32;;;;;;;9.05;3.15;;;5.20;99.90;;;;;;5007741;28;20038;-66
2021/03/23 00:12:58;;;;;;;8.93;3.60;;;5.30;99.90;;;;;;5013639;28;20104;-66
2021/03/23 00:15:24;;;;;;;9.82;3.33;;;5.40;99.90;;;;;;5009765;28;20029;-65
2021/03/23 00:17:50;;;;;;;13.93;4.18;;;5.40;99.90;;;;;;5010918;28;20061;-66
2021/03/23 00:20:21;;;;;;;8.98;3.65;;;5.50;99.90;;;;;;5007900;28;20530;-66
2021/03/23 00:22:47;;;;;;;10.20;3.95;;;5.50;99.90;;;;;;5012392;28;20045;-65
2021/03/23 00:25:12;;;;;;;9.90;3.58;;;5.60;99.90;;;;;;5010351;28;20057;-66
2021/03/23 00:27:38;;;;;;;6.53;3.67;;;5.60;99.90;;;;;;5009992;28;20107;-66
2021/03/23 00:30:07;;;;;;;11.73;3.58;;;5.70;99.90;;;;;;5008899;28;20117;-69
2021/03/23 00:32:33;;;;;;;7.55;3.50;;;5.70;99.90;;;;;;5011323;28;20049;-66
2021/03/23 00:34:59;;;;;;;11.80;3.95;;;5.70;99.90;;;;;;5009912;28;20022;-66
2021/03/23 00:37:25;;;;;;;6.47;3.67;;;5.80;99.90;;;;;;5008945;28;20116;-67
2021/03/23 00:39:50;;;;;;;8.23;3.22;;;5.80;99.90;;;;;;5009128;28;20460;-65
2021/03/23 00:42:16;;;;;;;8.90;3.92;;;5.80;99.90;;;;;;5010316;28;20499;-66
2021/03/23 00:44:43;;;;;;;11.93;3.72;;;5.80;99.90;;;;;;5009487;28;20038;-66
2021/03/23 00:47:08;;;;;;;7.63;3.42;;;5.80;99.90;;;;;;5007103;28;20040;-67
2021/03/23 00:49:34;;;;;;;7.70;3.47;;;5.80;99.90;;;;;;5008984;28;20046;-66
2021/03/23 00:51:59;;;;;;;9.32;3.10;;;5.80;99.90;;;;;;5010740;28;20038;-66
2021/03/23 00:54:25;;;;;;;12.75;3.83;;;5.90;99.90;;;;;;5008837;28;20057;-65
2021/03/23 00:56:51;;;;;;;9.63;3.50;;;5.90;99.90;;;;;;5008966;28;20061;-66
2021/03/23 00:59:16;;;;;;;8.77;3.13;;;5.90;99.90;;;;;;5010184;28;20042;-66
2021/03/23 01:01:42;;;;;;;7.90;3.05;;;6.00;99.90;;;;;;5007775;28;20125;-66
2021/03/23 01:04:07;;;;;;;10.80;3.88;;;6.00;99.90;;;;;;5012788;28;20057;-66
2021/03/23 01:06:33;;;;;;;9.55;3.50;;;6.00;99.90;;;;;;5012062;28;20034;-66
2021/03/23 01:08:59;;;;;;;9.95;3.83;;;6.00;99.90;;;;;;5020583;28;20095;-67
2021/03/23 01:11:25;;;;;;;8.45;3.45;;;6.10;99.90;;;;;;5013543;28;20057;-66
2021/03/23 01:13:50;;;;;;;11.05;4.15;;;6.10;99.90;;;;;;5011521;28;20091;-66
2021/03/23 01:16:16;;;;;;;9.77;3.08;;;6.10;99.90;;;;;;5010995;28;20034;-66
2021/03/23 01:18:42;;;;;;;10.25;2.88;;;6.10;99.90;;;;;;5005726;28;20045;-66
2021/03/23 01:21:07;;;;;;;9.10;3.22;;;6.10;99.90;;;;;;5010157;28;20636;-66
2021/03/23 01:23:33;;;;;;;6.90;3.30;;;6.10;99.90;;;;;;5008312;28;20568;-66
2021/03/23 01:25:59;;;;;;;11.50;3.20;;;6.10;99.90;;;;;;5010335;28;20061;-65
2021/03/23 01:28:24;;;;;;;9.00;3.30;;;6.10;99.90;;;;;;5008419;28;20116;-63
2021/03/23 01:30:50;;;;;;;9.55;3.45;;;6.10;99.90;;;;;;5010642;28;20153;-66
2021/03/23 01:33:16;;;;;;;12.02;3.67;;;6.10;99.90;;;;;;5012019;28;20048;-66
2021/03/23 01:35:41;;;;;;;16.77;4.05;;;6.10;99.90;;;;;;5008614;28;20026;-66
2021/03/23 01:38:07;;;;;;;6.85;3.15;;;6.10;99.90;;;;;;5007650;28;20034;-66
2021/03/23 01:40:34;;;;;;;7.05;3.13;;;6.10;99.90;;;;;;5011150;28;20117;-66
2021/03/23 01:43:04;;;;;;;11.65;3.05;;;6.10;99.90;;;;;;5011417;28;20038;-65
2021/03/23 01:45:34;;;;;;;12.50;3.38;;;6.10;99.90;;;;;;5006645;28;20042;-65
2021/03/23 01:48:03;;;;;;;7.93;3.70;;;6.00;99.90;;;;;;5012703;28;20030;-65
2021/03/23 01:50:30;;;;;;;8.95;3.20;;;6.10;99.90;;;;;;5008227;28;20285;-66
2021/03/23 01:53:18;;;;;;;6.65;3.15;;;6.00;99.90;;;;;;5009162;28;20052;-66
2021/03/23 01:55:43;;;;;;;10.90;3.42;;;6.00;99.90;;;;;;5007695;28;20041;-66
2021/03/23 01:58:10;;;;;;;10.38;4.53;;;6.00;99.90;;;;;;5008458;28;20031;-66
2021/03/23 02:00:36;;;;;;;12.30;3.47;;;6.00;99.90;;;;;;5011450;28;20034;-65
2021/03/23 02:03:04;;;;;;;12.98;3.70;;;6.00;99.90;;;;;;5008572;28;20061;-66
2021/03/23 02:05:32;;;;;;;11.23;4.50;;;6.00;99.90;;;;;;5010505;28;20046;-65
2021/03/23 02:08:01;;;;;;;10.65;4.80;;;6.00;99.90;;;;;;5012078;28;20041;-66
2021/03/23 02:10:27;;;;;;;14.38;5.38;;;6.10;99.90;;;;;;5020257;28;20034;-64
2021/03/23 02:12:55;;;;;;;14.75;4.47;;;6.00;99.90;;;;;;5020543;28;20117;-65
2021/03/23 02:15:22;;;;;;;9.63;4.32;;;6.10;99.90;;;;;;5020430;28;20038;-66
2021/03/23 02:18:08;;;;;;;14.98;4.75;;;6.10;99.90;;;;;;5008906;28;20030;-66
2021/03/23 02:20:35;;;;;;;12.98;4.30;;;6.10;99.90;;;;;;5011684;28;20133;-66
2021/03/23 02:23:09;;;;;;;16.85;4.82;;;6.10;99.90;;;;;;5012196;28;20033;-66
2021/03/23 02:25:36;;;;;;;25.92;6.25;;;6.10;99.90;;;;;;5005512;28;20037;-66
2021/03/23 02:28:03;;;;;;;10.85;4.05;;;6.00;99.90;;;;;;5008068;28;20037;-66
2021/03/23 02:30:34;;;;;;;10.63;4.45;;;6.00;99.90;;;;;;5007544;28;20041;-65
2021/03/23 02:33:01;;;;;;;18.20;5.63;;;6.00;99.90;;;;;;5006379;28;20738;-65
2021/03/23 02:35:27;;;;;;;15.15;4.97;;;6.00;99.90;;;;;;5007698;28;20044;-66
2021/03/23 02:37:53;;;;;;;16.42;5.35;;;6.00;99.90;;;;;;5006062;28;20034;-66
2021/03/23 02:40:19;;;;;;;17.42;5.47;;;6.00;99.90;;;;;;5006373;28;20499;-65
2021/03/23 02:42:44;;;;;;;13.85;5.45;;;6.10;99.90;;;;;;5009667;28;20033;-66
2021/03/23 02:45:10;;;;;;;16.30;6.03;;;6.00;99.90;;;;;;5007646;28;20037;-65
2021/03/23 02:47:36;;;;;;;13.38;4.78;;;6.00;99.90;;;;;;5008752;28;20455;-66
2021/03/23 02:50:03;;;;;;;16.88;5.32;;;6.00;99.90;;;;;;5010925;28;20034;-66
2021/03/23 02:52:28;;;;;;;14.30;6.32;;;6.00;99.90;;;;;;5014841;28;20038;-65
2021/03/23 02:54:54;;;;;;;13.18;4.93;;;6.00;99.90;;;;;;5010745;28;20030;-63
2021/03/23 02:57:19;;;;;;;16.25;5.93;;;6.00;99.90;;;;;;5014343;28;20038;-67
2021/03/23 02:59:45;;;;;;;15.68;5.60;;;6.00;99.90;;;;;;5015974;28;20037;-65
2021/03/23 03:02:10;;;;;;;15.13;6.20;;;6.00;99.90;;;;;;5019513;28;20301;-67
2021/03/23 03:04:38;;;;;;;10.38;5.47;;;6.00;99.90;;;;;;5012585;28;20038;-66
2021/03/23 03:07:04;;;;;;;21.17;6.10;;;6.00;99.90;;;;;;5012562;28;20133;-66
2021/03/23 03:09:30;;;;;;;16.40;6.75;;;6.00;99.90;;;;;;5017151;28;20652;-65
2021/03/23 03:11:55;;;;;;;14.07;6.40;;;6.00;99.90;;;;;;5018126;28;20042;-65
2021/03/23 03:14:21;;;;;;;19.90;6.55;;;5.90;99.90;;;;;;5012393;28;20040;-66
2021/03/23 03:16:47;;;;;;;15.02;6.05;;;5.90;99.90;;;;;;5011770;28;20545;-66
2021/03/23 03:19:13;;;;;;;16.98;6.45;;;5.90;99.90;;;;;;5017871;28;20049;-66
2021/03/23 03:21:38;;;;;;;11.18;5.40;;;5.90;99.90;;;;;;5014324;28;20057;-66
2021/03/23 03:24:05;;;;;;;14.00;6.22;;;5.90;99.90;;;;;;5014679;28;20306;-66
2021/03/23 03:26:31;;;;;;;19.30;6.13;;;5.90;99.90;;;;;;5015220;28;20364;-66
2021/03/23 03:28:56;;;;;;;17.15;5.68;;;5.80;99.90;;;;;;5013533;28;20529;-66
2021/03/23 03:31:24;;;;;;;15.55;6.30;;;5.80;99.90;;;;;;5013080;28;20450;-66
2021/03/23 03:33:52;;;;;;;18.15;6.18;;;5.80;99.90;;;;;;5011972;28;20030;-66
2021/03/23 03:36:18;;;;;;;17.80;6.38;;;5.80;99.90;;;;;;5013802;28;20594;-66
2021/03/23 03:38:44;;;;;;;16.75;7.00;;;5.80;99.90;;;;;;5013133;28;20044;-66
2021/03/23 03:41:10;;;;;;;24.15;8.55;;;5.80;99.90;;;;;;5013956;28;20109;-65
2021/03/23 03:43:36;;;;;;;18.30;7.07;;;5.80;99.90;;;;;;5015952;28;20033;-66
2021/03/23 03:46:03;;;;;;;19.98;7.60;;;5.80;99.90;;;;;;5012212;28;20177;-65
2021/03/23 03:48:29;;;;;;;24.38;7.32;;;5.70;99.90;;;;;;5015123;28;20034;-66
2021/03/23 03:50:55;;;;;;;22.05;7.78;;;5.70;99.90;;;;;;5018615;28;20665;-66
2021/03/23 03:53:21;;;;;;;20.23;7.80;;;5.70;99.90;;;;;;5016061;28;20037;-66
2021/03/23 03:55:47;;;;;;;21.27;8.52;;;5.70;99.90;;;;;;5014022;28;20068;-67
2021/03/23 03:58:13;;;;;;;17.38;7.10;;;5.70;99.90;;;;;;5016803;28;20069;-66
2021/03/23 04:00:39;;;;;;;21.45;7.13;;;5.70;99.90;;;;;;5015162;28;20049;-66
2021/03/23 04:03:11;;;;;;;21.08;7.25;;;5.60;99.90;;;;;;5012687;28;20034;-67
2021/03/23 04:05:39;;;;;;;20.30;8.00;;;5.60;99.90;;;;;;5019340;28;20470;-63
2021/03/23 04:08:07;;;;;;;18.85;7.60;;;5.60;99.90;;;;;;5011944;28;20057;-65
2021/03/23 04:10:33;;;;;;;21.13;7.88;;;5.60;99.90;;;;;;5009350;28;20045;-65
2021/03/23 04:12:59;;;;;;;16.40;7.60;;;5.50;99.90;;;;;;5009291;28;20030;-66
2021/03/23 04:15:32;;;;;;;22.73;8.48;;;5.50;99.90;;;;;;5012143;28;20338;-66
2021/03/23 04:17:58;;;;;;;19.23;7.68;;;5.40;99.90;;;;;;5016882;28;20063;-64
2021/03/23 04:20:24;;;;;;;21.05;7.40;;;5.40;99.90;;;;;;5012832;28;20038;-66
2021/03/23 04:22:51;;;;;;;28.73;9.02;;;5.40;99.90;;;;;;5016778;28;20045;-66
2021/03/23 04:25:19;;;;;;;24.48;9.23;;;5.30;99.90;;;;;;5014360;28;20561;-65
2021/03/23 04:27:45;;;;;;;18.42;8.32;;;5.30;99.90;;;;;;5012773;28;20509;-66
2021/03/23 04:30:11;;;;;;;29.38;8.85;;;5.30;99.90;;;;;;5012248;28;20034;-65
2021/03/23 04:32:38;;;;;;;22.52;8.75;;;5.40;99.90;;;;;;5019035;28;20054;-66
2021/03/23 04:35:07;;;;;;;28.10;8.80;;;5.30;99.90;;;;;;5008867;28;20030;-66
2021/03/23 04:37:33;;;;;;;26.42;9.57;;;5.30;99.90;;;;;;5009056;28;20168;-66
2021/03/23 04:40:00;;;;;;;26.73;8.82;;;5.30;99.90;;;;;;5009626;28;20034;-66
2021/03/23 04:42:26;;;;;;;23.50;8.82;;;5.40;99.90;;;;;;5014486;28;20469;-64
2021/03/23 04:44:51;;;;;;;25.27;9.52;;;5.40;99.90;;;;;;5009736;28;20042;-66
2021/03/23 04:47:17;;;;;;;19.55;9.70;;;5.40;99.90;;;;;;5014693;28;20127;-65
2021/03/23 04:49:42;;;;;;;20.52;9.10;;;5.30;99.90;;;;;;5016926;28;20050;-65
2021/03/23 04:52:08;;;;;;;22.23;9.45;;;5.30;99.90;;;;;;5015016;28;20037;-67
2021/03/23 04:54:34;;;;;;;19.67;8.80;;;5.20;99.90;;;;;;5020903;28;20030;-66
2021/03/23 04:56:59;;;;;;;27.85;9.98;;;5.20;99.90;;;;;;5024713;28;20049;-65
2021/03/23 04:59:25;;;;;;;27.10;10.10;;;5.10;99.90;;;;;;5013674;28;20125;-66
2021/03/23 05:01:50;;;;;;;28.05;10.07;;;5.10;99.90;;;;;;5008013;28;20081;-66
2021/03/23 05:04:18;;;;;;;20.48;8.68;;;5.00;99.90;;;;;;5012399;28;20069;-65
2021/03/23 05:06:44;;;;;;;22.38;9.77;;;5.00;99.90;;;;;;5011978;28;20038;-64
2021/03/23 05:09:10;;;;;;;25.27;10.25;;;4.90;99.90;;;;;;5007738;28;20037;-65
2021/03/23 05:11:36;;;;;;;25.73;10.10;;;4.80;99.90;;;;;;5010914;28;20042;-65
2021/03/23 05:14:05;;;;;;;23.92;9.48;;;4.90;99.90;;;;;;5014616;28;20056;-64
2021/03/23 05:16:31;;;;;;;26.77;11.10;;;4.90;99.90;;;;;;5010698;28;20033;-66
2021/03/23 05:18:57;;;;;;;21.05;8.85;;;4.90;99.90;;;;;;5009524;28;20034;-66
2021/03/23 05:21:23;;;;;;;27.33;10.75;;;5.00;99.90;;;;;;5009722;28;20067;-66
2021/03/23 05:23:50;;;;;;;28.30;10.55;;;5.10;99.90;;;;;;5009021;28;20789;-66
2021/03/23 05:26:15;;;;;;;43.58;11.35;;;5.20;99.90;;;;;;5011269;28;20101;-66
2021/03/23 05:28:46;;;;;;;29.35;10.95;;;5.30;99.90;;;;;;5009165;28;20121;-67
2021/03/23 05:31:12;;;;;;;27.65;10.52;;;5.30;99.90;;;;;;5013935;28;20133;-65
2021/03/23 05:33:38;;;;;;;27.90;10.95;;;5.40;99.90;;;;;;5012241;28;20037;-66
2021/03/23 05:36:04;;;;;;;26.05;11.13;;;5.50;99.90;;;;;;5011963;28;20394;-66
2021/03/23 05:38:30;;;;;;;27.58;11.00;;;5.40;99.90;;;;;;5010670;28;20098;-66
2021/03/23 05:41:05;;;;;;;24.90;12.00;;;5.50;99.90;;;;;;5011488;28;20060;-66
2021/03/23 05:43:31;;;;;;;28.45;11.95;;;5.60;99.90;;;;;;5010410;28;20187;-66
2021/03/23 05:46:14;;;;;;;28.52;11.55;;;5.60;99.90;;;;;;5016502;28;20101;-66
2021/03/23 05:49:05;;;;;;;29.58;11.65;;;5.70;99.90;;;;;;5016762;28;20084;-65
2021/03/23 05:51:40;;;;;;;28.75;11.30;;;5.70;99.90;;;;;;5032065;28;20037;-66
2021/03/23 05:54:22;;;;;;;33.35;11.40;;;5.70;99.90;;;;;;5016127;28;20026;-66
2021/03/23 05:56:53;;;;;;;31.13;13.02;;;5.80;99.90;;;;;;5017498;28;20516;-65
2021/03/23 05:59:32;;;;;;;44.97;14.05;;;5.80;99.90;;;;;;5015393;28;20095;-65
2021/03/23 06:02:06;;;;;;;39.70;14.40;;;5.80;99.90;;;;;;5031938;28;20064;-65
2021/03/23 06:04:52;;;;;;;43.00;16.00;;;5.90;99.90;;;;;;5014471;28;20045;-66
2021/03/23 06:07:19;;;;;;;43.83;15.63;;;5.90;99.90;;;;;;5007794;28;21485;-65
2021/03/23 06:09:45;;;;;;;39.22;15.10;;;6.00;99.90;;;;;;5006900;28;20042;-65
2021/03/23 06:12:29;;;;;;;44.35;16.80;;;6.00;99.90;;;;;;5010085;28;20495;-66
2021/03/23 06:15:01;;;;;;;41.83;16.27;;;6.10;99.90;;;;;;5006275;28;20030;-63
2021/03/23 06:17:54;;;;;;;44.25;15.80;;;6.10;99.90;;;;;;5006634;28;20044;-65
2021/03/23 06:20:41;;;;;;;42.40;16.60;;;6.20;99.90;;;;;;5009464;28;20077;-65
2021/03/23 06:23:15;;;;;;;53.33;17.95;;;6.20;99.90;;;;;;5005900;28;20462;-65
2021/03/23 06:26:06;;;;;;;49.60;17.83;;;6.20;99.90;;;;;;5010347;28;20042;-65
2021/03/23 06:28:55;;;;;;;53.72;19.20;;;6.20;99.90;;;;;;5010404;28;20516;-66
2021/03/23 06:31:36;;;;;;;53.72;19.15;;;6.30;99.90;;;;;;5004781;28;20037;-66
2021/03/23 06:34:03;;;;;;;55.40;18.67;;;6.30;99.90;;;;;;5013248;28;20038;-64
2021/03/23 06:36:31;;;;;;;54.80;18.30;;;6.40;99.90;;;;;;5013197;28;20041;-66
2021/03/23 06:38:57;;;;;;;61.28;20.80;;;6.40;99.90;;;;;;5010889;28;20139;-66
2021/03/23 06:41:26;;;;;;;61.10;21.13;;;6.50;99.90;;;;;;5010917;28;20038;-66
2021/03/23 06:43:59;;;;;;;65.30;20.50;;;6.50;99.90;;;;;;5006499;28;20044;-65
2021/03/23 06:46:31;;;;;;;56.10;19.88;;;6.60;99.90;;;;;;5013503;28;20037;-65
2021/03/23 06:49:14;;;;;;;57.83;20.70;;;6.60;99.90;;;;;;5011632;28;20065;-66
2021/03/23 06:52:01;;;;;;;62.05;21.95;;;6.60;99.90;;;;;;5011085;28;20525;-66
2021/03/23 06:54:35;;;;;;;60.08;19.98;;;6.70;99.90;;;;;;5010826;28;20053;-66
2021/03/23 06:57:15;;;;;;;64.35;20.65;;;6.70;99.90;;;;;;5016535;28;20029;-66
2021/03/23 07:00:06;;;;;;;63.63;20.80;;;6.70;99.90;;;;;;5010823;28;20061;-66
2021/03/23 07:02:39;;;;;;;;;;;6.70;99.90;;;;;;5029163;28;20191;-66
2021/03/23 07:05:20;;;;;;;64.70;20.67;;;6.80;99.90;;;;;;5011157;28;19925;-64
2021/03/23 07:08:09;;;;;;;65.50;20.50;;;6.80;99.90;;;;;;5009032;28;20034;-65
2021/03/23 07:10:40;;;;;;;63.25;20.80;;;6.90;99.90;;;;;;5016531;28;20058;-66
2021/03/23 07:13:08;;;;;;;64.07;20.02;;;7.00;99.90;;;;;;5013835;28;20121;-65
2021/03/23 07:15:35;;;;;;;56.33;19.88;;;7.00;99.90;;;;;;5019275;28;20084;-65
2021/03/23 07:18:12;;;;;;;57.75;20.08;;;7.00;99.90;;;;;;5013407;28;20156;-66
2021/03/23 07:20:49;;;;;;;66.47;21.33;;;7.10;99.90;;;;;;5017588;28;20099;-66
2021/03/23 07:23:43;;;;;;;62.50;19.92;;;7.10;99.90;;;;;;5018900;28;20030;-66
2021/03/23 07:26:30;;;;;;;56.65;19.70;;;7.20;99.90;;;;;;5023781;28;20042;-65
2021/03/23 07:29:11;;;;;;;62.50;20.60;;;7.20;99.90;;;;;;5036185;28;20029;-66
2021/03/23 07:31:39;;;;;;;;;;;7.30;99.90;;;;;;5021972;28;20461;-66
2021/03/23 07:34:26;;;;;;;60.20;21.02;;;7.30;99.90;;;;;;5025030;28;19920;-65
2021/03/23 07:37:20;;;;;;;55.33;20.40;;;7.30;99.90;;;;;;5019719;28;20437;-67
2021/03/23 07:39:51;;;;;;;64.78;20.00;;;7.30;99.90;;;;;;5017346;28;20117;-67
2021/03/23 07:42:30;;;;;;;56.83;19.75;;;7.30;99.90;;;;;;5025868;28;20037;-66
2021/03/23 07:45:06;;;;;;;57.22;19.52;;;7.30;99.90;;;;;;5020985;28;20505;-66
2021/03/23 07:47:48;;;;;;;49.08;18.80;;;7.30;99.90;;;;;;5023312;28;20514;-67
2021/03/23 07:50:28;;;;;;;58.05;19.42;;;7.40;99.90;;;;;;5024864;28;20219;-66
2021/03/23 07:53:00;;;;;;;50.55;18.60;;;7.50;99.90;;;;;;5026039;28;20126;-66
2021/03/23 07:55:27;;;;;;;49.90;18.52;;;7.60;99.90;;;;;;5023190;28;20038;-66
2021/03/23 07:58:11;;;;;;;46.40;17.80;;;7.50;99.90;;;;;;5021216;28;20037;-66
2021/03/23 08:00:59;;;;;;;62.10;18.33;;;7.50;99.90;;;;;;5024702;28;20513;-67
2021/03/23 08:03:37;;;;;;;58.88;18.60;;;7.60;99.90;;;;;;5035316;28;20046;-66
2021/03/23 08:06:25;;;;;;;58.88;18.50;;;7.60;99.90;;;;;;5024399;28;20030;-66
2021/03/23 08:09:10;;;;;;;50.80;18.08;;;7.60;99.90;;;;;;5035109;28;20399;-66
2021/03/23 08:12:01;;;;;;;46.65;16.75;;;7.60;99.90;;;;;;5024361;28;20073;-65
2021/03/23 08:14:37;;;;;;;46.72;17.30;;;7.70;99.90;;;;;;5019853;28;20042;-66
2021/03/23 08:17:13;;;;;;;56.85;19.15;;;7.60;99.90;;;;;;5022394;28;20124;-66
2021/03/23 08:19:59;;;;;;;52.83;19.23;;;7.70;99.90;;;;;;5021713;28;20094;-67
2021/03/23 08:22:40;;;;;;;51.47;19.55;;;7.70;99.90;;;;;;5019199;28;20069;-66
2021/03/23 08:25:24;;;;;;;50.05;17.08;;;7.80;99.90;;;;;;5022237;28;20504;-66
2021/03/23 08:28:12;;;;;;;51.03;18.23;;;7.90;99.90;;;;;;5019225;28;20124;-66
2021/03/23 08:31:02;;;;;;;52.38;18.15;;;7.90;99.90;;;;;;5024209;28;20038;-66
2021/03/23 08:33:34;;;;;;;55.90;18.27;;;8.10;99.90;;;;;;5021389;28;20116;-66
2021/03/23 08:36:31;;;;;;;57.92;18.92;;;8.20;99.90;;;;;;5023214;28;20084;-66
2021/03/23 08:39:28;;;;;;;43.30;16.88;;;8.30;99.90;;;;;;5020000;28;20034;-66
2021/03/23 08:42:14;;;;;;;42.65;16.90;;;8.30;99.90;;;;;;5016175;28;20038;-66
2021/03/23 08:45:14;;;;;;;46.03;17.70;;;8.40;99.90;;;;;;5021921;28;20697;-67
2021/03/23 08:47:53;;;;;;;49.72;16.17;;;8.40;99.90;;;;;;5024537;28;20034;-67
2021/03/23 08:50:48;;;;;;;47.05;16.42;;;8.50;99.90;;;;;;5024197;28;20050;-67
2021/03/23 08:53:31;;;;;;;47.25;16.02;;;8.50;99.90;;;;;;5012012;28;20030;-67
2021/03/23 08:55:56;;;;;;;49.85;16.15;;;8.70;99.90;;;;;;5019303;28;20149;-67
2021/03/23 08:58:44;;;;;;;54.88;17.13;;;8.80;99.90;;;;;;5014042;28;20216;-67
2021/03/23 09:01:38;;;;;;;45.08;16.77;;;8.90;99.90;;;;;;5016946;28;20037;-68
2021/03/23 09:04:03;;;;;;;43.00;16.23;;;9.10;99.90;;;;;;5021951;28;20033;-67
2021/03/23 09:06:54;;;;;;;45.47;15.88;;;9.10;99.90;;;;;;5024620;28;20033;-67
2021/03/23 09:09:26;;;;;;;46.83;15.70;;;9.20;99.90;;;;;;5019314;28;20045;-66
2021/03/23 09:11:52;;;;;;;36.13;15.30;;;9.30;99.90;;;;;;5021001;28;20502;-67
2021/03/23 09:14:22;;;;;;;44.40;15.35;;;9.40;99.90;;;;;;5031769;28;20048;-67
2021/03/23 09:17:14;;;;;;;36.92;15.45;;;9.40;99.90;;;;;;5024195;28;20036;-67
2021/03/23 09:19:41;;;;;;;49.53;15.60;;;9.50;99.90;;;;;;5011626;28;20160;-67
2021/03/23 09:22:13;;;;;;;38.50;15.55;;;9.60;99.90;;;;;;5021396;28;20034;-67
2021/03/23 09:24:43;;;;;;;39.20;15.15;;;9.70;99.90;;;;;;5020265;28;20430;-67
2021/03/23 09:27:24;;;;;;;37.83;16.00;;;9.70;99.90;;;;;;5020738;28;20058;-67
2021/03/23 09:29:50;;;;;;;38.88;16.25;;;9.70;99.90;;;;;;5018474;28;20049;-67
2021/03/23 09:32:28;;;;;;;36.63;14.35;;;9.90;99.90;;;;;;5023240;28;20140;-67
2021/03/23 09:35:07;;;;;;;44.58;14.93;;;10.00;99.90;;;;;;5022479;28;20041;-67
2021/03/23 09:37:38;;;;;;;43.28;15.18;;;10.10;99.90;;;;;;5023111;28;20080;-67
2021/03/23 09:40:32;;;;;;;39.38;14.93;;;10.30;99.90;;;;;;5020146;28;20038;-67
2021/03/23 09:42:57;;;;;;;41.42;14.55;;;10.40;99.90;;;;;;5013383;28;20029;-67
2021/03/23 09:45:27;;;;;;;45.13;15.65;;;10.30;99.90;;;;;;5015129;28;20045;-67
2021/03/23 09:48:02;;;;;;;39.03;14.40;;;10.30;99.90;;;;;;5013867;28;20033;-67
2021/03/23 09:50:51;;;;;;;39.97;15.25;;;10.20;99.90;;;;;;5023005;28;20167;-67
2021/03/23 09:53:28;;;;;;;41.70;15.32;;;10.10;99.90;;;;;;5016748;28;20482;-71
2021/03/23 09:56:03;;;;;;;33.65;14.50;;;10.20;99.90;;;;;;5020916;28;20034;-67
2021/03/23 09:58:28;;;;;;;45.58;15.65;;;10.30;99.90;;;;;;5019883;28;20042;-67
2021/03/23 10:01:28;;;;;;;43.42;16.15;;;10.40;99.90;;;;;;5018332;28;20045;-67
2021/03/23 10:03:57;;;;;;;40.78;16.05;;;10.50;99.90;;;;;;5017111;28;20045;-67
2021/03/23 10:06:28;;;;;;;33.78;15.75;;;10.70;99.90;;;;;;5021688;28;20716;-68
2021/03/23 10:09:08;;;;;;;39.72;15.00;;;10.80;99.90;;;;;;5017998;28;20037;-67
2021/03/23 10:11:45;;;;;;;37.13;14.70;;;10.80;99.90;;;;;;5021921;28;20482;-67
2021/03/23 10:14:29;;;;;;;44.45;16.70;;;10.90;99.90;;;;;;5017504;28;20109;-67
2021/03/23 10:17:22;;;;;;;37.22;15.38;;;10.90;99.90;;;;;;5020776;28;20447;-67
2021/03/23 10:19:59;;;;;;;41.88;15.05;;;10.80;99.90;;;;;;5015629;28;20105;-67
2021/03/23 10:22:35;;;;;;;42.20;16.33;;;10.80;99.90;;;;;;5018677;28;20044;-68
2021/03/23 10:25:04;;;;;;;41.38;15.20;;;10.80;99.90;;;;;;5018911;28;20467;-67
2021/03/23 10:27:35;;;;;;;40.83;14.95;;;10.90;99.90;;;;;;5021000;28;20054;-67
2021/03/23 10:30:28;;;;;;;37.97;14.80;;;10.90;99.90;;;;;;5021095;28;20029;-67
2021/03/23 10:32:56;;;;;;;42.65;16.83;;;10.90;99.90;;;;;;5019151;28;20040;-67
2021/03/23 10:35:29;;;;;;;44.90;15.25;;;10.90;99.90;;;;;;5020566;28;20375;-67
2021/03/23 10:38:17;;;;;;;35.90;15.35;;;10.90;99.90;;;;;;5016363;28;20055;-67
2021/03/23 10:40:46;;;;;;;42.65;15.27;;;10.80;99.90;;;;;;5016640;28;20026;-67
2021/03/23 10:43:15;;;;;;;34.30;15.00;;;10.80;99.90;;;;;;5018716;28;20120;-67
2021/03/23 10:45:41;;;;;;;34.08;14.45;;;10.70;99.90;;;;;;5021792;28;20022;-67
2021/03/23 10:48:15;;;;;;;34.05;14.20;;;10.60;99.90;;;;;;5018641;28;20105;-67
2021/03/23 10:50:43;;;;;;;35.25;13.85;;;10.60;99.90;;;;;;5031391;28;20053;-67
2021/03/23 10:53:16;;;;;;;42.78;14.05;;;10.50;99.90;;;;;;5018434;28;20116;-67
2021/03/23 10:55:44;;;;;;;31.75;14.18;;;10.70;99.90;;;;;;5008818;28;20038;-67
2021/03/23 10:58:19;;;;;;;41.22;16.38;;;10.80;99.90;;;;;;5020668;28;20061;-67
2021/03/23 11:00:47;;;;;;;35.20;14.25;;;10.90;99.90;;;;;;5019302;28;20037;-67
2021/03/23 11:03:18;;;;;;;38.60;15.27;;;11.10;99.90;;;;;;5019190;28;20038;-67
2021/03/23 11:05:51;;;;;;;37.08;13.80;;;11.20;99.90;;;;;;5021333;28;20033;-68
2021/03/23 11:08:17;;;;;;;34.92;15.25;;;11.30;99.90;;;;;;5021219;28;20025;-67
2021/03/23 11:10:44;;;;;;;33.78;14.05;;;11.30;99.90;;;;;;5020393;28;20037;-67
2021/03/23 11:13:14;;;;;;;29.50;13.55;;;11.40;99.90;;;;;;5017410;28;20033;-67
2021/03/23 11:15:41;;;;;;;35.88;15.00;;;11.50;99.90;;;;;;5017195;28;20125;-67
2021/03/23 11:18:28;;;;;;;38.83;14.10;;;11.60;99.90;;;;;;5020470;28;20124;-67
2021/03/23 11:20:54;;;;;;;30.15;13.35;;;11.70;99.90;;;;;;5019829;28;20064;-67
2021/03/23 11:23:30;;;;;;;32.83;14.48;;;11.90;99.90;;;;;;5021855;28;20116;-67
2021/03/23 11:25:55;;;;;;;33.72;15.35;;;12.00;99.90;;;;;;5021702;28;20038;-67
2021/03/23 11:28:21;;;;;;;28.40;12.57;;;12.10;99.90;;;;;;5017924;28;20128;-67
2021/03/23 11:30:47;;;;;;;29.17;13.55;;;12.20;99.90;;;;;;5012472;28;20121;-67
2021/03/23 11:33:13;;;;;;;31.58;13.90;;;12.20;99.90;;;;;;5011440;28;20042;-67
2021/03/23 11:35:43;;;;;;;34.08;13.60;;;12.20;99.90;;;;;;5012790;28;20040;-67
2021/03/23 11:38:09;;;;;;;38.97;14.40;;;12.20;99.90;;;;;;5015577;28;20044;-67
2021/03/23 11:40:34;;;;;;;34.33;13.05;;;12.20;99.90;;;;;;5015431;28;20630;-67
2021/03/23 11:43:01;;;;;;;34.15;13.15;;;12.10;99.90;;;;;;5014801;28;20516;-68
2021/03/23 11:45:39;;;;;;;41.45;14.23;;;12.10;99.90;;;;;;5016318;28;20096;-67
2021/03/23 11:48:11;;;;;;;34.42;14.10;;;11.90;99.90;;;;;;5009615;28;20169;-67
2021/03/23 11:50:38;;;;;;;32.60;13.05;;;11.90;99.90;;;;;;5012874;28;20094;-70
2021/03/23 11:53:04;;;;;;;29.58;14.45;;;11.90;99.90;;;;;;5017709;28;20042;-67
2021/03/23 11:55:33;;;;;;;33.90;13.68;;;11.90;99.90;;;;;;5015078;28;20058;-68
2021/03/23 11:57:59;;;;;;;28.00;13.60;;;12.00;99.90;;;;;;5019303;28;20033;-68
2021/03/23 12:00:28;;;;;;;29.70;12.98;;;12.00;99.90;;;;;;5033972;28;20068;-68
2021/03/23 12:02:54;;;;;;;30.40;13.60;;;12.00;99.90;;;;;;5022605;28;20029;-67
2021/03/23 12:05:21;;;;;;;33.28;14.18;;;11.90;99.90;;;;;;5019967;28;20034;-68
2021/03/23 12:08:11;;;;;;;37.42;13.98;;;11.80;99.90;;;;;;5022458;28;20049;-67
2021/03/23 12:10:53;;;;;;;29.90;12.85;;;11.70;99.90;;;;;;5017780;28;20411;-67
2021/03/23 12:13:26;;;;;;;32.03;13.80;;;11.70;99.90;;;;;;5021882;28;20091;-67
2021/03/23 12:16:00;;;;;;;31.13;13.43;;;11.60;99.90;;;;;;5021475;28;20124;-67
2021/03/23 12:18:28;;;;;;;29.45;13.15;;;11.60;99.90;;;;;;5022021;28;20038;-67
2021/03/23 12:20:57;;;;;;;32.60;12.50;;;11.70;99.90;;;;;;5020824;28;20124;-67
2021/03/23 12:23:23;;;;;;;28.88;13.15;;;11.70;99.90;;;;;;5022363;28;20050;-67
2021/03/23 12:25:49;;;;;;;30.30;13.63;;;11.80;99.90;;;;;;5021584;28;20600;-67
2021/03/23 12:28:14;;;;;;;29.83;13.25;;;11.80;99.90;;;;;;5023007;28;20038;-67
2021/03/23 12:30:40;;;;;;;34.83;14.13;;;11.90;99.90;;;;;;5021480;28;20494;-68
2021/03/23 12:33:06;;;;;;;29.92;13.38;;;12.00;99.90;;;;;;5020298;28;20043;-68
2021/03/23 12:35:31;;;;;;;29.00;13.82;;;12.10;99.90;;;;;;5023096;28;20553;-68
2021/03/23 12:38:00;;;;;;;28.90;14.13;;;12.20;99.90;;;;;;5021204;28;20033;-67
2021/03/23 12:40:27;;;;;;;32.28;13.55;;;12.10;99.90;;;;;;5023003;28;20037;-68
2021/03/23 12:42:56;;;;;;;29.30;13.30;;;12.10;99.90;;;;;;5020609;28;20029;-67
2021/03/23 12:45:41;;;;;;;40.00;14.95;;;12.10;99.90;;;;;;5020776;28;20036;-67
2021/03/23 12:48:08;;;;;;;33.63;14.55;;;11.90;99.90;;;;;;5020180;28;20588;-67
2021/03/23 12:50:33;;;;;;;33.05;13.75;;;11.90;99.90;;;;;;5022442;28;20127;-67
2021/03/23 12:53:04;;;;;;;36.50;14.88;;;11.90;99.90;;;;;;5019622;28;20030;-68
2021/03/23 12:55:31;;;;;;;32.47;13.85;;;11.80;99.90;;;;;;5018089;28;20469;-68
2021/03/23 12:58:01;;;;;;;33.95;14.43;;;11.80;99.90;;;;;;5019840;28;20574;-67
2021/03/23 13:00:34;;;;;;;27.23;13.35;;;11.80;99.90;;;;;;5022723;28;20266;-68
2021/03/23 13:03:01;;;;;;;35.45;14.82;;;11.70;99.90;;;;;;5015920;28;20410;-68